createdAt,value
2023-06-17T00:01:40.072Z,100
2023-06-17T00:17:22.809Z,100
2023-06-17T00:33:05.662Z,100
2023-06-17T00:48:48.276Z,100
2023-06-17T01:04:31.163Z,100
2023-06-17T01:20:13.452Z,100
2023-06-17T01:35:55.846Z,100
2023-06-17T01:51:38.374Z,100
2023-06-17T02:07:20.508Z,100
2023-06-17T02:23:03.071Z,100
2023-06-17T02:38:45.407Z,100
2023-06-17T02:54:28.258Z,100
2023-06-17T03:10:10.479Z,100
2023-06-17T03:25:53.230Z,100
2023-06-17T03:41:36.235Z,100
2023-06-17T03:57:18.499Z,100
2023-06-17T04:13:00.891Z,100
2023-06-17T04:28:43.898Z,100
2023-06-17T04:44:25.994Z,100
2023-06-17T05:00:08.168Z,100
2023-06-17T05:15:51.062Z,100
2023-06-17T05:31:33.912Z,100
2023-06-17T05:47:16.506Z,100
2023-06-17T06:02:58.992Z,100
2023-06-17T06:18:41.668Z,100
2023-06-17T06:34:24.489Z,100
2023-06-17T06:50:07.217Z,100
2023-06-17T07:05:49.890Z,100
2023-06-17T07:21:32.549Z,100
2023-06-17T07:37:15.372Z,100
2023-06-17T07:52:57.728Z,100
2023-06-17T08:08:39.993Z,100
2023-06-17T08:55:47.685Z,100
2023-06-17T09:11:30.057Z,93.31
2023-06-17T09:27:12.109Z,91.44
2023-06-17T09:42:54.645Z,82.63
2023-06-17T09:58:36.855Z,87.15
2023-06-17T10:14:19.037Z,81.33
2023-06-17T10:30:01.591Z,71.39
2023-06-17T10:45:44.022Z,82.1
2023-06-17T11:01:26.544Z,80.73
2023-06-17T11:17:08.630Z,79.35
2023-06-17T11:32:50.886Z,62.67
2023-06-17T11:48:33.407Z,49.91
2023-06-17T12:04:15.689Z,47.85
2023-06-17T12:19:58.599Z,69.34
2023-06-17T12:35:40.943Z,95.97
2023-06-17T12:51:23.005Z,100
2023-06-17T13:07:05.517Z,100
2023-06-17T13:22:47.624Z,98.75
2023-06-17T13:38:30.031Z,100
2023-06-17T13:54:12.701Z,100
2023-06-17T14:09:54.904Z,85.67
2023-06-17T14:25:37.363Z,73.3
2023-06-17T14:41:19.918Z,76.52
2023-06-17T14:57:02.823Z,74.38
2023-06-17T15:12:44.980Z,72.32
2023-06-17T15:28:27.288Z,55.48
2023-06-17T15:44:10.047Z,48.21
2023-06-17T15:59:52.216Z,44.43
2023-06-17T16:15:34.690Z,44.19
2023-06-17T16:31:17.194Z,47.71
2023-06-17T16:46:59.408Z,50.39
2023-06-17T17:02:41.502Z,55.16
2023-06-17T17:18:23.754Z,47.66
2023-06-17T17:34:06.003Z,48.92
2023-06-17T17:49:48.722Z,48.29
2023-06-17T18:05:30.844Z,50.48
2023-06-17T18:21:13.038Z,59.02
2023-06-17T18:36:55.035Z,66.67
2023-06-17T18:52:37.104Z,72.98
2023-06-17T18:53:24.346Z,73.55
2023-06-17T19:09:06.627Z,79.52
2023-06-17T19:24:49.571Z,82.88
2023-06-17T19:40:32.097Z,90.64
2023-06-17T19:56:14.260Z,96.2
2023-06-17T20:11:56.695Z,100
2023-06-17T20:27:39.475Z,100
2023-06-17T20:43:22.287Z,100
2023-06-17T20:59:04.967Z,100
2023-06-17T21:14:47.372Z,100
2023-06-17T21:30:29.826Z,100
2023-06-17T21:46:12.323Z,100
2023-06-17T22:01:55.124Z,100
2023-06-17T22:17:37.543Z,100
2023-06-17T22:33:20.321Z,100
2023-06-17T22:49:02.534Z,100
2023-06-17T23:04:44.812Z,100
2023-06-17T23:20:27.203Z,100
2023-06-17T23:36:09.794Z,100
2023-06-17T23:51:51.949Z,100
